Time;durP1;ratioP1;P1;durP2;ratioP2;P2;SDS_P1;SDS_P2;PMS_P1;PMS_P2;Temp;Humidity;BMP_temperature;BMP_pressure;BME280_temperature;BME280_humidity;BME280_pressure;Samples;Min_cycle;Max_cycle;Signal;HPM_P1;HPM_P2
2021/10/06 00:00:50;;;;;;;4.82;2.50;;;;;;;12.93;73.83;100581.16;10462299;28;20082;-82
2021/10/06 00:05:50;;;;;;;5.95;1.48;;;;;;;12.54;75.15;100572.22;10460722;28;20037;-82
2021/10/06 00:10:51;;;;;;;5.85;2.10;;;;;;;12.58;74.96;100575.34;10461502;28;20036;-82
2021/10/06 00:15:51;;;;;;;2.40;1.35;;;;;;;12.72;74.51;100590.47;10443958;28;20087;-82
2021/10/06 00:20:51;;;;;;;13.13;1.85;;;;;;;12.78;73.96;100578.75;10460571;28;20384;-82
2021/10/06 00:25:52;;;;;;;2.45;1.70;;;;;;;12.94;73.07;100585.53;10461870;28;20040;-82
2021/10/06 00:30:52;;;;;;;5.47;1.63;;;;;;;12.84;73.19;100592.50;10460612;28;20044;-82
2021/10/06 00:35:53;;;;;;;8.10;2.28;;;;;;;12.41;72.89;100538.88;10460174;28;20103;-82
2021/10/06 00:40:54;;;;;;;2.03;1.05;;;;;;;12.20;73.96;100557.16;10459595;28;20477;-83
2021/10/06 00:45:54;;;;;;;0.93;0.93;;;;;;;12.49;73.67;100584.78;10459039;28;20392;-82
2021/10/06 00:50:55;;;;;;;7.65;2.33;;;;;;;12.68;73.70;100626.47;10457637;28;20408;-82
2021/10/06 00:55:55;;;;;;;1.48;0.93;;;;;;;12.36;74.18;100612.84;10457527;28;20120;-82
2021/10/06 01:00:56;;;;;;;3.58;1.73;;;;;;;12.39;74.27;100611.59;10456883;28;20033;-83
2021/10/06 01:05:56;;;;;;;7.90;1.90;;;;;;;12.55;73.64;100641.78;10458413;28;20029;-84
2021/10/06 01:10:56;;;;;;;6.10;2.00;;;;;;;12.33;75.22;100635.84;10457669;28;20035;-83
2021/10/06 01:15:57;;;;;;;1.35;1.27;;;;;;;12.31;75.42;100632.50;10456763;28;20033;-82
2021/10/06 01:20:57;;;;;;;0.75;0.70;;;;;;;12.25;74.76;100624.38;10439881;28;20102;-82
2021/10/06 01:25:58;;;;;;;1.35;1.33;;;;;;;12.44;74.28;100630.75;10456394;28;20041;-82
2021/10/06 01:30:58;;;;;;;14.73;1.42;;;;;;;12.41;74.17;100640.19;10457577;28;20052;-82
2021/10/06 01:35:58;;;;;;;5.30;1.58;;;;;;;12.31;74.45;100616.19;10457445;28;20493;-82
2021/10/06 01:40:59;;;;;;;5.75;1.58;;;;;;;12.67;74.33;100628.38;10458547;28;20036;-82
2021/10/06 01:45:59;;;;;;;5.63;1.48;;;;;;;12.38;74.34;100612.63;10458707;28;20492;-83
2021/10/06 01:51:00;;;;;;;10.05;1.08;;;;;;;12.15;74.98;100591.44;10457092;28;20045;-82
2021/10/06 01:56:00;;;;;;;7.90;1.65;;;;;;;12.65;73.75;100616.88;10458605;28;20047;-82
2021/10/06 02:01:00;;;;;;;13.40;2.67;;;;;;;12.70;74.35;100649.66;10457360;28;20041;-83
2021/10/06 02:06:01;;;;;;;13.73;3.22;;;;;;;12.27;75.46;100628.53;10458814;28;20064;-83
2021/10/06 02:11:01;;;;;;;4.05;1.92;;;;;;;12.08;75.46;100622.16;10458363;28;20033;-81
2021/10/06 02:16:02;;;;;;;2.63;1.08;;;;;;;12.35;74.97;100638.34;10457834;28;20064;-82
2021/10/06 02:21:03;;;;;;;4.15;2.00;;;;;;;12.31;75.13;100628.94;10455688;28;20483;-81
2021/10/06 02:26:05;;;;;;;7.22;2.08;;;;;;;12.26;75.18;100628.78;10454736;28;20094;-81
2021/10/06 02:31:05;;;;;;;2.50;1.35;;;;;;;12.25;75.31;100629.81;10457537;28;20045;-82
2021/10/06 02:36:06;;;;;;;3.95;1.98;;;;;;;12.11;75.61;100637.19;10467148;28;20409;-82
2021/10/06 02:41:06;;;;;;;10.52;3.80;;;;;;;12.07;76.23;100646.81;10466328;28;20125;-82
2021/10/06 02:46:07;;;;;;;4.30;1.50;;;;;;;11.92;76.29;100624.50;10463024;28;20458;-81
2021/10/06 02:51:07;;;;;;;0.82;0.82;;;;;;;11.85;75.56;100605.53;10463074;28;20049;-82
2021/10/06 02:56:07;;;;;;;2.55;1.10;;;;;;;12.01;75.69;100628.66;10466208;28;20044;-82
2021/10/06 03:01:08;;;;;;;1.98;1.13;;;;;;;12.06;75.46;100645.09;10461655;28;20498;-82
2021/10/06 03:06:09;;;;;;;5.88;1.38;;;;;;;11.98;76.00;100627.19;10465724;28;20037;-82
2021/10/06 03:11:09;;;;;;;1.13;1.13;;;;;;;12.02;75.53;100605.88;10465691;28;20086;-81
2021/10/06 03:16:09;;;;;;;6.75;1.83;;;;;;;11.77;75.89;100582.16;10464100;28;20480;-81
2021/10/06 03:21:10;;;;;;;1.48;0.95;;;;;;;11.83;75.04;100613.00;10464453;28;20060;-81
2021/10/06 03:26:10;;;;;;;7.60;1.50;;;;;;;11.91;75.02;100629.09;10464097;28;20037;-80
2021/10/06 03:31:10;;;;;;;0.98;0.93;;;;;;;11.89;75.47;100617.63;10462843;28;20037;-82
2021/10/06 03:36:11;;;;;;;5.18;1.73;;;;;;;11.91;76.10;100599.25;10460900;28;20033;-81
2021/10/06 03:41:11;;;;;;;3.60;1.77;;;;;;;12.08;75.74;100615.88;10462728;28;20040;-82
2021/10/06 03:46:12;;;;;;;11.07;1.65;;;;;;;12.20;75.44;100614.19;10462572;28;20037;-82
2021/10/06 03:51:12;;;;;;;5.28;1.17;;;;;;;12.12;76.51;100627.97;10460810;28;20053;-81
2021/10/06 03:56:12;;;;;;;8.20;2.97;;;;;;;12.14;76.71;100600.63;10459736;28;20037;-81
2021/10/06 04:01:13;;;;;;;9.65;2.30;;;;;;;12.39;76.91;100592.59;10460486;28;20045;-81
2021/10/06 04:06:13;;;;;;;6.50;2.10;;;;;;;12.51;76.66;100582.69;10461650;28;20115;-82
2021/10/06 04:11:14;;;;;;;2.13;1.98;;;;;;;12.69;77.40;100593.63;10461197;28;20480;-80
2021/10/06 04:16:14;;;;;;;6.70;3.33;;;;;;;12.75;77.44;100600.91;10459924;28;20408;-82
2021/10/06 04:21:14;;;;;;;13.57;3.20;;;;;;;12.56;77.71;100570.09;10460543;28;20033;-81
2021/10/06 04:26:15;;;;;;;15.80;2.85;;;;;;;12.65;78.76;100580.72;10459483;28;20045;-82
2021/10/06 04:31:19;;;;;;;4.07;2.05;;;;;;;12.86;77.78;100583.09;10459094;28;20346;-82
2021/10/06 04:36:19;;;;;;;11.85;3.67;;;;;;;13.02;77.57;100603.47;10459417;28;20051;-81
2021/10/06 04:41:19;;;;;;;6.90;2.33;;;;;;;13.06;77.66;100601.13;10460064;28;20029;-82
2021/10/06 04:46:20;;;;;;;5.85;2.38;;;;;;;12.94;77.97;100611.88;10458806;28;20028;-82
2021/10/06 04:51:20;;;;;;;6.57;3.13;;;;;;;12.75;77.54;100554.72;10460322;28;20057;-81
2021/10/06 04:56:21;;;;;;;2.90;1.88;;;;;;;12.90;77.75;100610.66;10459780;28;20047;-82
2021/10/06 05:01:21;;;;;;;11.48;2.70;;;;;;;12.96;77.83;100618.75;10290868;28;20046;-82
2021/10/06 05:06:21;;;;;;;15.02;2.72;;;;;;;13.01;77.99;100634.41;10339907;28;20030;-81
2021/10/06 05:11:22;;;;;;;8.10;2.17;;;;;;;12.97;77.93;100660.38;10352429;28;20030;-81
2021/10/06 05:16:23;;;;;;;12.32;2.72;;;;;;;12.89;78.61;100658.75;10371431;28;20049;-81
2021/10/06 05:21:23;;;;;;;18.48;5.88;;;;;;;12.68;77.70;100626.47;10340747;28;20030;-82
2021/10/06 05:26:23;;;;;;;8.55;3.28;;;;;;;13.07;78.11;100665.31;10339363;28;20113;-81
2021/10/06 05:31:24;;;;;;;8.48;3.80;;;;;;;12.97;77.62;100679.38;10333595;28;20070;-81
2021/10/06 05:36:24;;;;;;;3.15;2.30;;;;;;;12.93;77.13;100670.84;10333238;28;20039;-81
2021/10/06 05:41:25;;;;;;;6.85;3.53;;;;;;;13.01;77.06;100691.47;10350821;28;20034;-81
2021/10/06 05:46:27;;;;;;;12.00;3.35;;;;;;;13.20;77.35;100698.66;10336652;28;20045;-81
2021/10/06 05:51:31;;;;;;;18.60;3.60;;;;;;;12.90;77.05;100626.97;10343268;28;20050;-82
2021/10/06 05:56:32;;;;;;;5.45;2.85;;;;;;;12.86;76.43;100629.28;10334382;28;20042;-82
2021/10/06 06:01:32;;;;;;;13.48;3.33;;;;;;;13.17;76.85;100698.28;10333894;28;20522;-82
2021/10/06 06:06:33;;;;;;;7.80;2.08;;;;;;;13.46;76.17;100724.91;10321830;28;20426;-80
2021/10/06 06:11:33;;;;;;;4.57;2.60;;;;;;;13.50;75.66;100719.84;10343576;28;20541;-81
2021/10/06 06:16:33;;;;;;;7.18;2.28;;;;;;;12.75;75.84;100619.09;10344524;28;20046;-80
2021/10/06 06:21:34;;;;;;;13.07;2.80;;;;;;;13.53;75.68;100738.44;10342365;28;20133;-80
2021/10/06 06:26:34;;;;;;;6.85;2.03;;;;;;;13.20;77.07;100744.91;10358346;28;20042;-80
2021/10/06 06:31:35;;;;;;;8.38;2.28;;;;;;;13.41;76.48;100751.09;10342235;28;20073;-81
2021/10/06 06:36:35;;;;;;;6.45;2.38;;;;;;;13.48;76.33;100739.09;10343633;28;20042;-82
2021/10/06 06:41:35;;;;;;;6.60;1.65;;;;;;;13.59;76.29;100755.75;10343608;28;20166;-81
2021/10/06 06:46:36;;;;;;;15.23;2.92;;;;;;;14.01;75.60;100750.56;10342731;28;20037;-80
2021/10/06 06:51:37;;;;;;;6.00;2.00;;;;;;;13.91;75.97;100756.53;10342277;28;20406;-81
2021/10/06 06:56:40;;;;;;;19.92;3.80;;;;;;;13.74;75.97;100742.66;10343150;28;20093;-82
2021/10/06 07:01:40;;;;;;;15.20;3.65;;;;;;;13.62;76.28;100761.59;10342019;28;20498;-82
2021/10/06 07:06:41;;;;;;;9.35;2.67;;;;;;;13.32;77.83;100785.88;10342284;28;20054;-81
2021/10/06 07:11:41;;;;;;;14.05;3.33;;;;;;;13.36;77.92;100778.09;10324668;28;20041;-82
2021/10/06 07:16:42;;;;;;;21.63;3.65;;;;;;;13.62;77.24;100810.56;10340005;28;20039;-82
2021/10/06 07:21:45;;;;;;;6.15;3.03;;;;;;;13.47;77.31;100799.19;10347934;28;20390;-82
2021/10/06 07:26:45;;;;;;;7.57;1.92;;;;;;;13.70;76.89;100821.19;10343606;28;20512;-81
2021/10/06 07:31:46;;;;;;;12.18;3.22;;;;;;;13.73;77.27;100837.09;10344917;28;20038;-81
2021/10/06 07:36:46;;;;;;;8.93;2.53;;;;;;;13.38;77.68;100835.84;10338429;28;20371;-83
2021/10/06 07:41:46;;;;;;;10.75;2.83;;;;;;;13.45;77.88;100840.19;10341002;28;20471;-82
2021/10/06 07:46:47;;;;;;;7.07;3.45;;;;;;;13.58;77.77;100850.16;10340464;28;20043;-83
2021/10/06 07:51:47;;;;;;;10.65;3.08;;;;;;;13.48;78.25;100842.47;10354759;28;20042;-83
2021/10/06 07:56:48;;;;;;;8.88;3.08;;;;;;;13.62;77.68;100867.69;10353744;28;20426;-82
2021/10/06 08:01:48;;;;;;;14.60;4.13;;;;;;;13.34;77.98;100868.09;10338169;28;20042;-81
2021/10/06 08:06:49;;;;;;;15.43;3.22;;;;;;;13.52;78.11;100867.34;10321653;28;20034;-82
2021/10/06 08:11:49;;;;;;;15.82;4.22;;;;;;;12.79;78.21;100742.59;10339064;28;20039;-82
2021/10/06 08:16:49;;;;;;;7.00;4.22;;;;;;;13.42;77.94;100867.81;10341780;28;20066;-83
2021/10/06 08:21:50;;;;;;;16.00;4.25;;;;;;;12.62;77.82;100757.72;10337593;28;20041;-83
2021/10/06 08:26:51;;;;;;;13.13;4.75;;;;;;;13.65;78.54;100889.03;10338123;28;20034;-84
2021/10/06 08:31:52;;;;;;;11.95;4.28;;;;;;;13.88;78.17;100914.84;10336893;28;20034;-83
2021/10/06 08:36:52;;;;;;;13.05;4.97;;;;;;;14.04;77.18;100895.31;10338470;28;20038;-83
2021/10/06 08:41:52;;;;;;;7.35;3.40;;;;;;;14.35;77.09;100939.88;10336961;28;20154;-83
2021/10/06 08:46:53;;;;;;;16.00;4.57;;;;;;;14.13;76.50;100883.06;10339102;28;20030;-83
2021/10/06 08:51:55;;;;;;;11.88;5.22;;;;;;;15.09;76.00;100949.09;10336701;28;20047;-83
2021/10/06 08:56:55;;;;;;;18.55;4.47;;;;;;;15.91;75.24;100963.22;10337078;28;20398;-82
2021/10/06 09:01:55;;;;;;;11.20;4.50;;;;;;;15.45;74.77;100982.91;10335691;28;20038;-82
2021/10/06 09:07:00;;;;;;;14.88;4.65;;;;;;;15.15;75.58;100996.44;10351325;28;20133;-83
2021/10/06 09:12:02;;;;;;;10.98;4.10;;;;;;;15.03;75.58;100997.22;10334988;28;20552;-82
2021/10/06 09:17:07;;;;;;;14.52;4.28;;;;;;;15.66;75.08;101011.63;10336048;28;20038;-84
2021/10/06 09:22:11;;;;;;;10.30;4.15;;;;;;;16.47;74.79;101043.97;10334761;28;20390;-84
2021/10/06 09:27:11;;;;;;;10.40;3.58;;;;;;;16.18;73.32;101034.75;10319635;28;20052;-85
2021/10/06 09:32:29;;;;;;;16.05;4.47;;;;;;;16.36;73.33;101003.78;10337277;28;20045;-84
2021/10/06 09:37:29;;;;;;;13.77;3.42;;;;;;;17.53;73.52;101065.19;10336156;28;20080;-84
2021/10/06 09:42:31;;;;;;;30.23;5.15;;;;;;;18.79;71.27;101074.34;10336302;28;20104;-84
2021/10/06 09:47:35;;;;;;;9.90;2.97;;;;;;;18.75;69.81;101028.44;10334610;28;20066;-85
2021/10/06 09:52:36;;;;;;;7.13;1.98;;;;;;;18.72;69.59;101106.56;10336066;28;20061;-85
2021/10/06 09:57:40;;;;;;;12.45;2.92;;;;;;;18.13;69.19;101092.25;10336857;28;20049;-83
2021/10/06 10:02:41;;;;;;;9.30;2.72;;;;;;;17.99;68.59;101082.63;10336537;28;20034;-82
2021/10/06 10:07:41;;;;;;;6.35;2.72;;;;;;;16.49;69.78;100954.34;10335333;28;20081;-84
2021/10/06 10:12:42;;;;;;;8.38;3.25;;;;;;;17.77;70.90;101118.03;10351413;28;20069;-82
2021/10/06 10:17:43;;;;;;;8.43;2.35;;;;;;;18.51;69.14;101120.97;10336326;28;20389;-83
2021/10/06 10:22:46;;;;;;;6.38;2.20;;;;;;;18.22;69.88;101145.63;10336381;28;20041;-83
2021/10/06 10:28:18;;;;;;;7.32;2.10;;;;;;;17.92;70.03;101158.66;10336276;28;20074;-84
2021/10/06 10:33:41;;;;;;;19.25;4.18;;;;;;;17.05;70.52;101148.34;10335813;28;20034;-83
2021/10/06 10:38:42;;;;;;;12.02;3.50;;;;;;;16.98;70.54;101180.44;10338952;28;20034;-82
2021/10/06 10:43:53;;;;;;;12.27;3.28;;;;;;;17.85;70.01;101142.34;10339249;28;20101;-84
2021/10/06 10:49:03;;;;;;;10.07;2.95;;;;;;;18.84;70.15;101138.59;10342862;28;20061;-84
2021/10/06 10:54:09;;;;;;;11.00;3.08;;;;;;;18.97;69.11;101182.19;10344418;28;20050;-83
2021/10/06 10:59:11;;;;;;;66.57;8.25;;;;;;;18.77;69.38;101216.41;10341240;28;20470;-84
2021/10/06 11:04:24;;;;;;;6.63;2.00;;;;;;;18.86;69.46;101230.59;10339682;28;20508;-84
2021/10/06 11:09:30;;;;;;;14.77;2.70;;;;;;;18.62;69.50;101238.00;10340673;28;20097;-84
2021/10/06 11:14:34;;;;;;;9.50;2.50;;;;;;;17.57;68.95;101154.81;10340555;28;20055;-82
2021/10/06 11:19:48;;;;;;;18.65;3.90;;;;;;;16.95;70.14;101170.78;10340357;28;20030;-81
2021/10/06 11:24:52;;;;;;;11.45;3.45;;;;;;;16.56;72.02;101178.47;10341031;28;20445;-81
2021/10/06 11:29:56;;;;;;;11.73;3.55;;;;;;;16.73;72.17;101249.75;10340558;28;20034;-81
2021/10/06 11:34:57;;;;;;;16.63;3.33;;;;;;;16.29;72.32;101205.25;10340504;28;20137;-81
2021/10/06 11:39:57;;;;;;;17.20;4.88;;;;;;;17.11;72.15;101278.75;10361005;28;20041;-81
2021/10/06 11:45:06;;;;;;;20.42;3.60;;;;;;;17.29;72.58;101303.31;10341475;28;20042;-82
2021/10/06 11:50:09;;;;;;;13.15;4.22;;;;;;;17.23;72.20;101287.84;10353473;28;20209;-81
2021/10/06 11:55:10;;;;;;;20.45;4.53;;;;;;;15.88;71.91;101094.78;10344511;28;20397;-80
2021/10/06 12:00:15;;;;;;;9.48;3.78;;;;;;;16.22;72.76;101256.44;10347229;28;20097;-81
2021/10/06 12:05:15;;;;;;;20.95;4.57;;;;;;;16.25;72.63;101333.34;10340428;28;20112;-80
2021/10/06 12:10:16;;;;;;;16.95;5.72;;;;;;;16.11;73.36;101329.03;10345809;28;20060;-81
2021/10/06 12:15:16;;;;;;;36.83;9.93;;;;;;;16.60;73.71;101346.44;10357584;28;20039;-80
2021/10/06 12:20:21;;;;;;;30.17;6.05;;;;;;;16.85;73.13;101373.78;10383351;28;20043;-83
2021/10/06 12:25:23;;;;;;;11.98;4.40;;;;;;;16.77;73.31;101374.06;10367604;28;20042;-82
2021/10/06 12:30:28;;;;;;;46.42;7.70;;;;;;;16.89;73.24;101323.00;10368941;28;20049;-82
2021/10/06 12:35:28;;;;;;;8.02;3.35;;;;;;;17.27;72.05;101321.88;10358525;28;20097;-83
2021/10/06 12:40:49;;;;;;;9.90;2.67;;;;;;;17.42;72.16;101379.81;10341375;28;20038;-83
2021/10/06 12:46:03;;;;;;;16.02;2.95;;;;;;;17.56;72.66;101396.03;10343046;28;20038;-83
2021/10/06 12:51:04;;;;;;;5.20;2.08;;;;;;;17.87;70.51;101401.31;10341069;28;20074;-83
2021/10/06 12:56:04;;;;;;;8.48;2.67;;;;;;;17.79;70.71;101418.06;10340963;28;20104;-83
2021/10/06 13:01:05;;;;;;;15.18;3.10;;;;;;;16.96;71.13;101402.25;10337463;28;20116;-83
2021/10/06 13:06:05;;;;;;;21.30;3.95;;;;;;;16.54;71.41;101373.84;10337359;28;20046;-84
2021/10/06 13:11:06;;;;;;;6.20;2.13;;;;;;;16.96;71.07;101438.66;10337728;28;20026;-83
2021/10/06 13:16:06;;;;;;;15.73;3.40;;;;;;;17.12;71.95;101474.69;10337285;28;20478;-83
2021/10/06 13:21:07;;;;;;;10.75;2.95;;;;;;;17.12;71.51;101482.91;10338169;28;20039;-84
2021/10/06 13:26:08;;;;;;;24.10;4.50;;;;;;;17.30;71.49;101498.50;10336876;28;20089;-82
2021/10/06 13:31:09;;;;;;;17.40;4.50;;;;;;;16.87;72.78;101491.16;10334789;28;20038;-82
2021/10/06 13:36:09;;;;;;;10.90;4.63;;;;;;;16.63;72.91;101503.75;10339987;28;20034;-83
2021/10/06 13:41:11;;;;;;;9.27;1.88;;;;;;;16.40;73.60;101518.88;10337044;28;20356;-83
2021/10/06 13:46:11;;;;;;;12.13;3.25;;;;;;;16.43;72.98;101510.22;10337277;28;20085;-83
2021/10/06 13:51:13;;;;;;;8.88;2.83;;;;;;;16.89;72.87;101530.91;10335363;28;20093;-83
2021/10/06 13:56:14;;;;;;;11.30;2.85;;;;;;;17.04;72.17;101540.66;10337581;28;20046;-83
2021/10/06 14:01:14;;;;;;;3.03;1.67;;;;;;;17.10;71.41;101526.94;10318668;28;20499;-82
2021/10/06 14:06:15;;;;;;;7.93;3.00;;;;;;;17.22;71.96;101554.38;10352285;28;20041;-81
2021/10/06 14:11:15;;;;;;;11.07;3.63;;;;;;;17.27;71.06;101568.22;10336938;28;20173;-83
2021/10/06 14:16:15;;;;;;;16.48;4.78;;;;;;;17.31;71.06;101582.31;10335280;28;20034;-83
2021/10/06 14:21:16;;;;;;;8.07;2.63;;;;;;;17.46;70.41;101592.91;10337671;28;20037;-83
2021/10/06 14:26:16;;;;;;;13.00;3.10;;;;;;;16.98;69.89;101558.81;10337283;28;20070;-82
2021/10/06 14:31:17;;;;;;;19.48;4.43;;;;;;;17.13;71.35;101622.28;10343642;28;20439;-82
2021/10/06 14:36:17;;;;;;;9.90;3.28;;;;;;;17.14;71.93;101634.06;10342060;28;20085;-82
2021/10/06 14:41:17;;;;;;;15.55;3.90;;;;;;;17.15;72.49;101633.81;10345077;28;20053;-82
2021/10/06 14:46:18;;;;;;;12.00;4.40;;;;;;;16.61;72.04;101576.97;10364532;28;20034;-82
2021/10/06 14:51:19;;;;;;;15.30;3.35;;;;;;;16.96;72.69;101643.84;10353211;28;20513;-82
2021/10/06 14:56:19;;;;;;;11.25;3.10;;;;;;;17.47;71.43;101644.69;10353057;28;20045;-82
2021/10/06 15:01:19;;;;;;;7.30;3.42;;;;;;;17.37;72.59;101604.13;10354709;28;20478;-82
2021/10/06 15:06:20;;;;;;;10.57;3.30;;;;;;;17.33;72.29;101633.03;10352305;28;20034;-82
2021/10/06 15:11:20;;;;;;;5.35;2.55;;;;;;;16.85;72.56;101543.38;10349221;28;20478;-82
2021/10/06 15:16:21;;;;;;;8.68;2.58;;;;;;;17.64;71.43;101673.19;10348643;28;20062;-82
2021/10/06 15:21:21;;;;;;;13.85;2.72;;;;;;;17.42;70.88;101664.53;10344616;28;20030;-82
2021/10/06 15:26:21;;;;;;;10.50;2.75;;;;;;;17.44;70.91;101700.75;10339751;28;20037;-81
2021/10/06 15:31:25;;;;;;;19.75;2.83;;;;;;;17.24;71.35;101700.06;10338854;28;20041;-81
2021/10/06 15:36:26;;;;;;;6.35;2.95;;;;;;;17.40;71.55;101721.41;10340704;28;20061;-81
2021/10/06 15:41:26;;;;;;;14.95;3.75;;;;;;;17.24;71.27;101726.63;10340410;28;20065;-81
2021/10/06 15:46:27;;;;;;;14.52;3.78;;;;;;;17.08;72.33;101736.19;10340525;28;20117;-81
2021/10/06 15:51:28;;;;;;;6.70;2.75;;;;;;;16.94;71.96;101736.28;10340476;28;20058;-83
2021/10/06 15:56:28;;;;;;;17.85;3.40;;;;;;;16.75;72.71;101734.47;10343505;28;20129;-82
2021/10/06 16:01:28;;;;;;;11.90;2.88;;;;;;;17.02;71.34;101750.75;10346426;28;20092;-83
2021/10/06 16:06:29;;;;;;;14.85;2.80;;;;;;;16.63;72.37;101753.44;10367130;28;20034;-84
2021/10/06 16:11:29;;;;;;;10.68;2.92;;;;;;;16.52;72.12;101741.25;10369095;28;20031;-83
2021/10/06 16:16:32;;;;;;;6.18;2.10;;;;;;;16.61;71.96;101776.59;10365815;28;20034;-84
2021/10/06 16:21:33;;;;;;;3.15;1.75;;;;;;;15.98;72.08;101726.06;10352827;28;20035;-84
2021/10/06 16:26:34;;;;;;;10.82;2.90;;;;;;;16.50;71.93;101802.72;10360195;28;20049;-84
2021/10/06 16:31:35;;;;;;;3.35;2.35;;;;;;;15.94;71.57;101733.03;10364009;28;20045;-83
2021/10/06 16:36:35;;;;;;;7.07;1.83;;;;;;;16.39;72.30;101827.97;10356141;28;20395;-82
2021/10/06 16:41:35;;;;;;;10.30;2.50;;;;;;;16.15;71.91;101804.91;10350098;28;20466;-84
2021/10/06 16:46:36;;;;;;;4.03;2.15;;;;;;;16.24;71.59;101836.38;10353191;28;20041;-86
2021/10/06 16:51:37;;;;;;;7.50;4.38;;;;;;;16.09;71.78;101844.00;10349663;28;20058;-85
2021/10/06 16:56:37;;;;;;;5.43;2.20;;;;;;;15.75;71.87;101822.13;10350119;28;20034;-86
2021/10/06 17:01:38;;;;;;;6.22;2.20;;;;;;;15.76;71.64;101861.19;10333578;28;20486;-85
2021/10/06 17:06:38;;;;;;;9.80;3.08;;;;;;;15.80;71.90;101876.13;10342779;28;20406;-85
2021/10/06 17:11:39;;;;;;;10.23;2.58;;;;;;;15.74;72.06;101879.69;10347024;28;20037;-84
2021/10/06 17:16:39;;;;;;;5.90;2.72;;;;;;;15.65;72.05;101892.66;10348068;28;20085;-86
2021/10/06 17:21:40;;;;;;;3.65;2.53;;;;;;;15.59;72.42;101940.72;10344367;28;20098;-85
2021/10/06 17:26:41;;;;;;;7.03;2.72;;;;;;;15.50;72.41;101917.38;10324108;28;20034;-85
2021/10/06 17:31:42;;;;;;;11.05;2.88;;;;;;;15.48;72.49;101932.31;10336632;28;20038;-85
2021/10/06 17:36:42;;;;;;;11.07;2.85;;;;;;;15.37;72.58;101928.28;10344537;28;20030;-82
2021/10/06 17:41:43;;;;;;;13.10;2.72;;;;;;;15.38;71.93;101954.53;10322922;28;20058;-84
2021/10/06 17:46:43;;;;;;;9.00;2.47;;;;;;;15.01;72.34;101913.00;10345412;28;20046;-85
2021/10/06 17:51:43;;;;;;;10.63;2.65;;;;;;;15.27;72.54;101964.13;10339549;28;20058;-86
2021/10/06 17:56:44;;;;;;;9.00;2.00;;;;;;;15.22;72.24;101969.38;10343088;28;20046;-85
2021/10/06 18:01:45;;;;;;;15.18;3.92;;;;;;;15.20;72.39;101970.59;10342300;28;20038;-84
2021/10/06 18:06:47;;;;;;;7.32;2.60;;;;;;;15.14;72.31;101976.88;10341554;28;20414;-84
2021/10/06 18:11:47;;;;;;;13.32;3.30;;;;;;;15.14;71.92;101987.78;10342826;28;20031;-84
2021/10/06 18:16:47;;;;;;;16.17;3.33;;;;;;;15.06;72.39;102002.41;10352828;28;20120;-86
2021/10/06 18:21:48;;;;;;;9.98;3.53;;;;;;;14.93;72.09;101983.25;10342808;28;20065;-84
2021/10/06 18:26:48;;;;;;;3.67;2.88;;;;;;;14.99;72.24;102007.81;10340572;28;20125;-84
2021/10/06 18:31:49;;;;;;;4.07;2.42;;;;;;;14.95;72.20;102012.00;10340693;28;20057;-84
2021/10/06 18:36:49;;;;;;;12.80;2.55;;;;;;;14.40;72.31;101938.16;10341325;28;20062;-83
2021/10/06 18:41:50;;;;;;;7.25;2.95;;;;;;;14.28;72.56;101922.56;10342604;28;20069;-85
2021/10/06 18:46:51;;;;;;;9.98;3.63;;;;;;;14.92;71.99;102031.50;10339012;28;20027;-85
2021/10/06 18:51:53;;;;;;;5.22;2.30;;;;;;;14.86;72.43;102033.13;10336856;28;20042;-86
2021/10/06 18:56:54;;;;;;;4.13;3.22;;;;;;;14.85;72.32;102039.63;10342505;28;20026;-84
2021/10/06 19:01:54;;;;;;;10.15;4.68;;;;;;;14.90;72.40;102047.22;10363767;28;20042;-82
2021/10/06 19:06:55;;;;;;;18.23;5.15;;;;;;;14.67;72.64;102016.63;10419611;28;20038;-82
2021/10/06 19:11:55;;;;;;;14.60;4.95;;;;;;;14.94;72.68;102062.16;10421088;28;20038;-79
2021/10/06 19:16:56;;;;;;;16.38;4.43;;;;;;;14.93;72.70;102052.25;10425231;28;20026;-80
2021/10/06 19:21:56;;;;;;;7.35;3.33;;;;;;;15.04;73.18;102081.72;10405052;28;20026;-82
2021/10/06 19:26:56;;;;;;;5.95;3.60;;;;;;;15.30;73.61;102075.63;10396836;28;20083;-85
2021/10/06 19:31:57;;;;;;;12.57;3.38;;;;;;;15.62;73.88;102086.09;10412688;28;20034;-82
2021/10/06 19:36:57;;;;;;;12.10;2.90;;;;;;;15.21;73.19;102014.06;10389541;28;20069;-80
2021/10/06 19:41:58;;;;;;;14.07;2.95;;;;;;;15.68;73.43;102079.84;10389088;28;20042;-82
2021/10/06 19:46:59;;;;;;;7.55;2.78;;;;;;;15.88;73.77;102105.38;10400076;28;20025;-82
2021/10/06 19:52:00;;;;;;;7.60;3.70;;;;;;;15.78;74.15;102083.88;10396623;28;20057;-83
2021/10/06 19:57:00;;;;;;;3.28;2.38;;;;;;;16.23;74.48;102122.53;10387004;28;20041;-83
2021/10/06 20:02:00;;;;;;;6.43;2.67;;;;;;;16.25;74.56;102130.53;10359425;28;20081;-83
2021/10/06 20:07:01;;;;;;;18.73;3.40;;;;;;;16.36;75.15;102142.75;10343020;28;20069;-84
2021/10/06 20:12:01;;;;;;;13.13;4.10;;;;;;;16.43;75.03;102143.59;10338000;28;20052;-85
2021/10/06 20:17:02;;;;;;;11.43;2.58;;;;;;;16.34;75.11;102126.56;10313755;28;20046;-82
2021/10/06 20:22:03;;;;;;;5.60;2.90;;;;;;;16.53;74.86;102155.03;10378553;28;20088;-82
2021/10/06 20:27:03;;;;;;;10.27;2.95;;;;;;;16.57;74.95;102158.19;10377327;28;20022;-82
2021/10/06 20:32:04;;;;;;;4.00;3.25;;;;;;;16.60;75.07;102164.06;10377749;28;20116;-81
2021/10/06 20:37:11;;;;;;;8.65;4.28;;;;;;;15.87;75.53;102102.84;10379656;28;20034;-84
2021/10/06 20:42:11;;;;;;;21.95;4.30;;;;;;;16.40;75.54;102171.34;10376555;28;20047;-81
2021/10/06 20:47:12;;;;;;;18.20;5.35;;;;;;;16.29;76.35;102175.53;10381511;28;20076;-83
2021/10/06 20:52:13;;;;;;;19.08;5.45;;;;;;;16.07;75.69;102109.22;10379005;28;20100;-84
2021/10/06 20:57:13;;;;;;;17.20;5.07;;;;;;;16.18;75.75;102133.25;10379715;28;20045;-84
2021/10/06 21:02:16;;;;;;;8.77;3.17;;;;;;;16.36;75.70;102184.59;10381371;28;20527;-84
2021/10/06 21:07:17;;;;;;;8.75;3.08;;;;;;;16.31;75.64;102195.31;10381210;28;20095;-84
2021/10/06 21:12:17;;;;;;;13.35;3.63;;;;;;;16.26;75.59;102197.81;10385591;28;20377;-84
2021/10/06 21:17:18;;;;;;;8.63;3.25;;;;;;;16.36;75.13;102192.78;10381133;28;20033;-85
2021/10/06 21:22:18;;;;;;;16.65;4.70;;;;;;;16.44;75.19;102192.63;10391135;28;20034;-86
2021/10/06 21:27:20;;;;;;;7.75;4.22;;;;;;;16.11;75.14;102137.81;10395290;28;20048;-84
2021/10/06 21:32:20;;;;;;;15.93;4.90;;;;;;;16.42;75.20;102191.16;10401892;28;20046;-82
2021/10/06 21:37:22;;;;;;;17.17;5.28;;;;;;;16.35;75.28;102199.31;10397275;28;20037;-82
2021/10/06 21:42:22;;;;;;;23.90;5.93;;;;;;;16.22;75.19;102200.13;10392470;28;20049;-83
2021/10/06 21:47:23;;;;;;;14.82;4.03;;;;;;;16.25;75.40;102226.19;10397789;28;20064;-83
2021/10/06 21:52:23;;;;;;;15.10;3.67;;;;;;;16.15;74.93;102223.84;10391875;28;20092;-83
2021/10/06 21:57:23;;;;;;;13.95;2.97;;;;;;;16.35;75.26;102247.69;10397921;28;20041;-83
2021/10/06 22:02:24;;;;;;;9.20;4.00;;;;;;;16.41;75.36;102246.88;10394289;28;20442;-82
2021/10/06 22:07:25;;;;;;;7.38;3.20;;;;;;;16.37;75.24;102238.25;10390253;28;20042;-82
2021/10/06 22:12:26;;;;;;;9.32;3.95;;;;;;;16.27;75.71;102267.81;10390664;28;20042;-82
2021/10/06 22:17:26;;;;;;;16.85;2.72;;;;;;;16.27;75.52;102270.56;10401719;28;20524;-85
2021/10/06 22:22:27;;;;;;;14.65;3.97;;;;;;;16.17;75.32;102268.19;10397691;28;20045;-84
2021/10/06 22:27:27;;;;;;;9.45;2.90;;;;;;;16.06;75.25;102273.41;10401793;28;20470;-83
2021/10/06 22:32:27;;;;;;;12.82;3.33;;;;;;;16.11;74.96;102284.53;10395251;28;20037;-84
2021/10/06 22:37:28;;;;;;;11.45;3.95;;;;;;;16.04;75.15;102290.81;10399472;28;20042;-83
2021/10/06 22:42:28;;;;;;;6.95;2.33;;;;;;;16.11;75.25;102299.06;10398152;28;20048;-83
2021/10/06 22:47:29;;;;;;;5.60;2.72;;;;;;;16.12;75.36;102308.13;10383169;28;20494;-83
2021/10/06 22:52:29;;;;;;;11.00;3.15;;;;;;;16.19;75.00;102319.94;10388053;28;20116;-83
2021/10/06 22:57:30;;;;;;;15.68;2.63;;;;;;;16.17;74.89;102316.53;10385309;28;20511;-83